Time;durP1;ratioP1;P1;durP2;ratioP2;P2;SDS_P1;SDS_P2;PMS_P1;PMS_P2;Temp;Humidity;BMP_temperature;BMP_pressure;BME280_temperature;BME280_humidity;BME280_pressure;Samples;Min_cycle;Max_cycle;Signal;HPM_P1;HPM_P2
2022/06/14 00:00:55;;;;;;;23.58;1.48;;;;;;;;;;5106578;28;20040;-69
2022/06/14 00:03:22;;;;;;;41.47;3.03;;;;;;;;;;5096570;28;20853;-68
2022/06/14 00:05:49;;;;;;;27.67;1.65;;;;;;;;;;5107524;28;20085;-72
2022/06/14 00:08:17;;;;;;;2.65;0.30;;;;;;;;;;5099787;28;20036;-72
2022/06/14 00:10:44;;;;;;;12.43;0.85;;;;;;;;;;5100697;28;20071;-72
2022/06/14 00:13:11;;;;;;;9.55;0.88;;;;;;;;;;5094627;28;20036;-69
2022/06/14 00:15:38;;;;;;;14.90;0.90;;;;;;;;;;5106416;28;20358;-71
2022/06/14 00:18:04;;;;;;;46.28;2.92;;;;;;;;;;5112577;28;20071;-71
2022/06/14 00:20:31;;;;;;;15.95;1.38;;;;;;;;;;5111528;28;20036;-73
2022/06/14 00:22:58;;;;;;;14.43;0.95;;;;;;;;;;5109801;28;20039;-74
2022/06/14 00:25:28;;;;;;;14.82;0.98;;;;;;;;;;5107648;28;20123;-72
2022/06/14 00:27:55;;;;;;;26.77;2.50;;;;;;;;;;5109220;28;20042;-72
2022/06/14 00:30:22;;;;;;;21.17;1.30;;;;;;;;;;5109649;28;20086;-72
2022/06/14 00:32:49;;;;;;;20.60;2.20;;;;;;;;;;5113727;28;20576;-73
2022/06/14 00:35:15;;;;;;;12.93;0.85;;;;;;;;;;5109861;28;20393;-72
2022/06/14 00:37:42;;;;;;;4.72;0.65;;;;;;;;;;5109657;28;20119;-67
2022/06/14 00:40:10;;;;;;;15.15;0.95;;;;;;;;;;5108759;28;20084;-72
2022/06/14 00:42:36;;;;;;;8.10;0.60;;;;;;;;;;5093609;28;20470;-73
2022/06/14 00:45:05;;;;;;;15.45;1.77;;;;;;;;;;5113627;27;20050;-69
2022/06/14 00:47:37;;;;;;;18.25;1.63;;;;;;;;;;5110812;28;20047;-69
2022/06/14 00:50:06;;;;;;;11.98;0.90;;;;;;;;;;5109386;28;20051;-73
2022/06/14 00:52:37;;;;;;;7.43;1.83;;;;;;;;;;5109279;28;20039;-73
2022/06/14 00:55:19;;;;;;;30.25;2.13;;;;;;;;;;5108750;28;20040;-73
2022/06/14 00:57:49;;;;;;;9.57;0.88;;;;;;;;;;5108333;28;20410;-70
2022/06/14 01:00:21;;;;;;;39.53;2.47;;;;;;;;;;5111155;27;20404;-70
2022/06/14 01:02:50;;;;;;;16.42;1.67;;;;;;;;;;5111682;28;20493;-71
2022/06/14 01:05:21;;;;;;;27.60;1.73;;;;;;;;;;5107114;28;20040;-73
2022/06/14 01:07:49;;;;;;;6.68;0.47;;;;;;;;;;5099704;28;20496;-75
2022/06/14 01:10:17;;;;;;;7.70;0.63;;;;;;;;;;5098869;28;20059;-74
2022/06/14 01:12:45;;;;;;;17.25;1.05;;;;;;;;;;5108235;28;20044;-73
2022/06/14 01:15:25;;;;;;;24.50;1.50;;;;;;;;;;5111319;28;20129;-73
2022/06/14 01:18:01;;;;;;;8.23;0.60;;;;;;;;;;5112890;28;20094;-77
2022/06/14 01:20:27;;;;;;;21.67;1.42;;;;;;;;;;5109074;28;20067;-76
2022/06/14 01:22:54;;;;;;;25.13;1.52;;;;;;;;;;5108732;28;20067;-76
2022/06/14 01:25:22;;;;;;;35.25;3.40;;;;;;;;;;5108956;28;20101;-67
2022/06/14 01:27:49;;;;;;;16.13;1.08;;;;;;;;;;5099396;28;20124;-67
2022/06/14 01:30:18;;;;;;;53.50;4.85;;;;;;;;;;5111031;28;20092;-65
2022/06/14 01:32:47;;;;;;;11.25;0.80;;;;;;;;;;5094159;28;20468;-63
2022/06/14 01:35:17;;;;;;;11.18;0.77;;;;;;;;;;5108332;28;20127;-66
2022/06/14 01:37:45;;;;;;;6.32;0.47;;;;;;;;;;5108466;28;20477;-73
2022/06/14 01:40:12;;;;;;;10.52;0.73;;;;;;;;;;5108362;28;20047;-68
2022/06/14 01:42:41;;;;;;;19.63;1.30;;;;;;;;;;5108232;28;20454;-67
2022/06/14 01:45:27;;;;;;;20.05;1.92;;;;;;;;;;5112018;28;20039;-70
2022/06/14 01:48:05;;;;;;;20.27;1.25;;;;;;;;;;5112902;28;20051;-70
2022/06/14 01:53:22;;;;;;;16.83;1.70;;;;;;;;;;5107852;28;20410;-71
2022/06/14 01:56:07;;;;;;;16.17;1.00;;;;;;;;;;5107603;28;20054;-65
2022/06/14 01:58:43;;;;;;;23.98;1.42;;;;;;;;;;5106719;28;20044;-68
2022/06/14 02:01:21;;;;;;;29.35;1.83;;;;;;;;;;5108064;28;20477;-69
2022/06/14 02:06:50;;;;;;;14.70;0.95;;;;;;;;;;5101409;28;20036;-68
2022/06/14 02:09:20;;;;;;;32.88;2.28;;;;;;;;;;5096694;28;20412;-70
2022/06/14 02:11:47;;;;;;;16.92;1.20;;;;;;;;;;5111460;28;20047;-72
2022/06/14 02:14:32;;;;;;;20.23;1.25;;;;;;;;;;5107384;28;20082;-73
2022/06/14 02:17:04;;;;;;;15.13;1.63;;;;;;;;;;5107951;28;20085;-70
2022/06/14 02:19:36;;;;;;;21.90;1.35;;;;;;;;;;5107204;28;20070;-71
2022/06/14 02:22:08;;;;;;;16.35;1.08;;;;;;;;;;5107464;28;20043;-71
2022/06/14 02:24:56;;;;;;;6.35;0.47;;;;;;;;;;5097039;28;20405;-65
2022/06/14 02:27:26;;;;;;;45.30;2.83;;;;;;;;;;5108472;28;20131;-66
2022/06/14 02:29:55;;;;;;;13.88;0.90;;;;;;;;;;5111799;28;20123;-67
2022/06/14 02:32:24;;;;;;;9.55;0.63;;;;;;;;;;5106978;28;20393;-69
2022/06/14 02:34:56;;;;;;;14.75;1.08;;;;;;;;;;5099425;28;20426;-73
2022/06/14 02:37:26;;;;;;;44.65;2.67;;;;;;;;;;5080048;28;20134;-70
2022/06/14 02:39:55;;;;;;;7.15;0.55;;;;;;;;;;5104158;28;20047;-69
2022/06/14 02:42:25;;;;;;;27.88;2.30;;;;;;;;;;5107371;28;20048;-69
2022/06/14 02:45:01;;;;;;;8.80;0.65;;;;;;;;;;5111407;28;20096;-67
2022/06/14 02:47:31;;;;;;;24.42;1.50;;;;;;;;;;5107498;28;20043;-63
2022/06/14 02:50:16;;;;;;;25.42;1.55;;;;;;;;;;5107172;28;20044;-68
2022/06/14 02:52:47;;;;;;;10.10;0.68;;;;;;;;;;5107814;28;20582;-70
2022/06/14 02:55:17;;;;;;;35.42;2.17;;;;;;;;;;5106677;28;20126;-69
2022/06/14 02:57:46;;;;;;;5.32;0.40;;;;;;;;;;5107299;28;20394;-71
2022/06/14 03:00:15;;;;;;;41.00;2.45;;;;;;;;;;5108640;28;20051;-67
2022/06/14 03:02:44;;;;;;;15.32;1.08;;;;;;;;;;5099596;28;20115;-67
2022/06/14 03:05:11;;;;;;;7.63;0.60;;;;;;;;;;5104458;28;20386;-72
2022/06/14 03:07:44;;;;;;;21.08;1.58;;;;;;;;;;5098731;28;20089;-71
2022/06/14 03:10:11;;;;;;;16.70;1.08;;;;;;;;;;5105242;28;20080;-72
2022/06/14 03:12:38;;;;;;;12.85;0.95;;;;;;;;;;5089745;28;20468;-73
2022/06/14 03:15:05;;;;;;;45.80;3.35;;;;;;;;;;5110929;28;20540;-68
2022/06/14 03:17:31;;;;;;;35.63;2.15;;;;;;;;;;5106339;28;20040;-70
2022/06/14 03:20:08;;;;;;;13.65;0.90;;;;;;;;;;5106128;28;20470;-71
2022/06/14 03:22:45;;;;;;;12.70;0.88;;;;;;;;;;5106333;28;20105;-72
2022/06/14 03:25:20;;;;;;;8.38;0.60;;;;;;;;;;5105101;28;20508;-71
2022/06/14 03:28:02;;;;;;;15.40;1.02;;;;;;;;;;5106290;28;20066;-70
2022/06/14 03:30:35;;;;;;;44.85;2.63;;;;;;;;;;5105947;28;20044;-70
2022/06/14 03:33:04;;;;;;;14.77;0.93;;;;;;;;;;5103495;28;20048;-71
2022/06/14 03:35:40;;;;;;;9.13;0.65;;;;;;;;;;5102684;28;20130;-66
2022/06/14 03:38:27;;;;;;;25.13;1.55;;;;;;;;;;5104908;28;20085;-67
2022/06/14 03:40:53;;;;;;;9.88;0.70;;;;;;;;;;5083965;28;20056;-66
2022/06/14 03:43:20;;;;;;;19.50;1.48;;;;;;;;;;5083323;28;20529;-66
2022/06/14 03:45:49;;;;;;;17.75;1.83;;;;;;;;;;5067244;28;20060;-66
2022/06/14 03:48:16;;;;;;;24.65;2.33;;;;;;;;;;5086562;28;20086;-70
2022/06/14 03:51:00;;;;;;;15.48;0.95;;;;;;;;;;5086374;28;20123;-68
2022/06/14 03:53:26;;;;;;;;;;;;;;;;;;5087546;28;20060;-67
2022/06/14 03:56:02;;;;;;;16.27;1.10;;;;;;;;;;5087695;28;19969;-67
2022/06/14 03:58:47;;;;;;;9.77;0.75;;;;;;;;;;5087359;28;20059;-67
2022/06/14 04:01:24;;;;;;;22.85;1.98;;;;;;;;;;5087653;28;20193;-69
2022/06/14 04:04:08;;;;;;;3.58;1.02;;;;;;;;;;5074619;28;20072;-68
2022/06/14 04:06:52;;;;;;;10.88;1.17;;;;;;;;;;5080663;28;20041;-66
2022/06/14 04:09:19;;;;;;;;;;;;;;;;;;5090419;28;20036;-66
2022/06/14 04:12:04;;;;;;;4.07;0.32;;;;;;;;;;5085901;28;20389;-66
2022/06/14 04:14:42;;;;;;;23.75;1.65;;;;;;;;;;5087929;28;20058;-68
2022/06/14 04:17:22;;;;;;;14.10;0.98;;;;;;;;;;5089828;28;20052;-67
2022/06/14 04:20:06;;;;;;;17.98;1.30;;;;;;;;;;5091327;28;20040;-66
2022/06/14 04:22:36;;;;;;;21.80;1.48;;;;;;;;;;5109817;28;20043;-66
2022/06/14 04:25:22;;;;;;;11.75;0.90;;;;;;;;;;5109963;28;20064;-70
2022/06/14 04:27:52;;;;;;;20.45;1.42;;;;;;;;;;5109248;28;20047;-70
2022/06/14 04:30:22;;;;;;;35.17;2.30;;;;;;;;;;5110920;28;20146;-72
2022/06/14 04:32:54;;;;;;;16.60;1.23;;;;;;;;;;5113170;28;20067;-70
2022/06/14 04:35:33;;;;;;;16.60;1.20;;;;;;;;;;5109448;28;20079;-70
2022/06/14 04:38:01;;;;;;;15.02;1.15;;;;;;;;;;5109843;28;20451;-71
2022/06/14 04:40:31;;;;;;;27.90;1.80;;;;;;;;;;5109396;28;20109;-71
2022/06/14 04:43:04;;;;;;;12.00;0.93;;;;;;;;;;5109359;28;20035;-70
2022/06/14 04:45:33;;;;;;;21.05;1.42;;;;;;;;;;5110228;28;20044;-71
2022/06/14 04:48:08;;;;;;;12.68;1.10;;;;;;;;;;5114362;28;20066;-69
2022/06/14 04:50:38;;;;;;;20.35;1.52;;;;;;;;;;5109895;28;20036;-71
2022/06/14 04:53:12;;;;;;;20.58;1.45;;;;;;;;;;5107767;28;20043;-68
2022/06/14 04:55:42;;;;;;;5.68;0.65;;;;;;;;;;5109240;28;20047;-70
2022/06/14 04:58:36;;;;;;;18.48;1.38;;;;;;;;;;5107567;28;20119;-70
2022/06/14 05:01:07;;;;;;;22.23;1.58;;;;;;;;;;5079947;28;20094;-73
2022/06/14 05:03:38;;;;;;;25.83;1.75;;;;;;;;;;5073119;28;20048;-72
2022/06/14 05:06:13;;;;;;;10.68;0.90;;;;;;;;;;5071379;28;20147;-64
2022/06/14 05:08:49;;;;;;;6.20;0.65;;;;;;;;;;5087737;28;20044;-64
2022/06/14 05:11:19;;;;;;;21.67;1.95;;;;;;;;;;5085921;28;20048;-63
2022/06/14 05:13:50;;;;;;;22.88;1.60;;;;;;;;;;5077168;28;20585;-68
2022/06/14 05:16:19;;;;;;;16.80;1.27;;;;;;;;;;5086245;28;20040;-64
2022/06/14 05:18:45;;;;;;;11.13;1.60;;;;;;;;;;5069134;28;20041;-64
2022/06/14 05:21:25;;;;;;;22.73;1.70;;;;;;;;;;5088822;28;20131;-65
2022/06/14 05:23:53;;;;;;;21.70;1.52;;;;;;;;;;5058119;28;20067;-63
2022/06/14 05:26:22;;;;;;;26.70;1.92;;;;;;;;;;5083919;28;20136;-63
2022/06/14 05:28:52;;;;;;;39.30;2.67;;;;;;;;;;5085566;28;20056;-63
2022/06/14 05:31:18;;;;;;;25.10;1.77;;;;;;;;;;5085901;28;20127;-64
2022/06/14 05:33:52;;;;;;;17.50;1.27;;;;;;;;;;5085109;28;20484;-64
2022/06/14 05:36:23;;;;;;;74.20;4.68;;;;;;;;;;5059418;28;20123;-63
2022/06/14 05:38:50;;;;;;;14.57;1.10;;;;;;;;;;5086400;28;20509;-63
2022/06/14 05:41:16;;;;;;;60.97;3.88;;;;;;;;;;5086012;28;20084;-64
2022/06/14 05:43:47;;;;;;;61.67;4.07;;;;;;;;;;5083817;28;20035;-63
2022/06/14 05:46:19;;;;;;;16.13;1.23;;;;;;;;;;5096801;28;20150;-62
2022/06/14 05:48:50;;;;;;;19.75;1.48;;;;;;;;;;5107949;28;20028;-64
2022/06/14 05:51:21;;;;;;;49.83;3.28;;;;;;;;;;5096505;28;20040;-65
2022/06/14 05:53:51;;;;;;;14.45;1.15;;;;;;;;;;5109116;28;20112;-75
2022/06/14 05:56:26;;;;;;;29.98;2.05;;;;;;;;;;5108115;28;20043;-59
2022/06/14 05:58:55;;;;;;;5.05;0.50;;;;;;;;;;5107841;28;20040;-58
2022/06/14 06:01:30;;;;;;;56.15;3.70;;;;;;;;;;5099405;28;20123;-58
2022/06/14 06:04:07;;;;;;;15.38;1.70;;;;;;;;;;5080050;28;20115;-58
2022/06/14 06:06:39;;;;;;;31.90;2.25;;;;;;;;;;5108214;28;20451;-58
2022/06/14 06:09:05;;;;;;;12.27;0.93;;;;;;;;;;5087066;28;20071;-58
2022/06/14 06:11:38;;;;;;;35.17;2.33;;;;;;;;;;5102964;28;20063;-58
2022/06/14 06:14:08;;;;;;;52.78;3.85;;;;;;;;;;5106890;28;20039;-58
2022/06/14 06:16:51;;;;;;;17.48;1.35;;;;;;;;;;5104640;28;20063;-59
2022/06/14 06:19:18;;;;;;;49.17;3.20;;;;;;;;;;5096262;28;20067;-59
2022/06/14 06:21:58;;;;;;;19.58;1.40;;;;;;;;;;5107856;28;20068;-59
2022/06/14 06:24:30;;;;;;;53.08;3.60;;;;;;;;;;5109206;28;20082;-59
2022/06/14 06:27:08;;;;;;;15.18;1.23;;;;;;;;;;5110425;28;20089;-59
2022/06/14 06:30:01;;;;;;;27.83;2.00;;;;;;;;;;5108207;28;20127;-59
2022/06/14 06:32:31;;;;;;;21.70;1.63;;;;;;;;;;5106204;28;20048;-59
2022/06/14 06:35:00;;;;;;;45.55;3.20;;;;;;;;;;5106862;28;20329;-59
2022/06/14 06:37:30;;;;;;;15.85;1.23;;;;;;;;;;5105563;28;20036;-59
2022/06/14 06:40:02;;;;;;;20.20;1.67;;;;;;;;;;5107462;27;20089;-59
2022/06/14 06:42:32;;;;;;;38.38;2.83;;;;;;;;;;5108120;28;20127;-60
2022/06/14 06:45:05;;;;;;;45.78;2.97;;;;;;;;;;5096260;28;20155;-59
2022/06/14 06:47:47;;;;;;;56.92;3.90;;;;;;;;;;5093838;28;20052;-59
2022/06/14 06:50:29;;;;;;;54.20;3.55;;;;;;;;;;5084197;28;20055;-59
2022/06/14 06:52:59;;;;;;;46.83;3.05;;;;;;;;;;5084801;28;20052;-59
2022/06/14 06:55:29;;;;;;;30.83;2.13;;;;;;;;;;5086154;28;20059;-59
2022/06/14 06:57:58;;;;;;;21.92;1.58;;;;;;;;;;5093642;28;20114;-59
2022/06/14 07:00:26;;;;;;;67.95;4.47;;;;;;;;;;5101424;28;20580;-59
2022/06/14 07:02:59;;;;;;;29.92;2.20;;;;;;;;;;5109525;28;20475;-59
2022/06/14 07:05:26;;;;;;;36.58;2.55;;;;;;;;;;5104451;28;20044;-59
2022/06/14 07:08:01;;;;;;;17.15;1.80;;;;;;;;;;5106513;28;20481;-59
2022/06/14 07:10:35;;;;;;;42.35;2.80;;;;;;;;;;5106256;28;20062;-58
2022/06/14 07:13:11;;;;;;;30.40;2.15;;;;;;;;;;5106416;28;20122;-58
2022/06/14 07:15:44;;;;;;;6.20;0.63;;;;;;;;;;5106580;28;20074;-59
2022/06/14 07:18:29;;;;;;;31.30;2.17;;;;;;;;;;5097301;28;20032;-60
2022/06/14 07:21:05;;;;;;;11.73;0.88;;;;;;;;;;5091516;28;20051;-59
2022/06/14 07:23:43;;;;;;;19.33;1.48;;;;;;;;;;5091022;28;20062;-59
2022/06/14 07:26:10;;;;;;;52.63;3.63;;;;;;;;;;5090095;28;20050;-59
2022/06/14 07:28:40;;;;;;;28.10;2.15;;;;;;;;;;5097483;28;20084;-59
2022/06/14 07:31:09;;;;;;;33.05;2.10;;;;;;;;;;5097024;28;20492;-60
2022/06/14 07:33:36;;;;;;;13.40;0.98;;;;;;;;;;5094658;28;20067;-61
2022/06/14 07:36:10;;;;;;;24.23;1.60;;;;;;;;;;5115655;28;20059;-60
2022/06/14 07:38:36;;;;;;;37.25;2.35;;;;;;;;;;5103717;28;20138;-60
2022/06/14 07:41:18;;;;;;;25.88;2.20;;;;;;;;;;5109277;28;20035;-67
2022/06/14 07:43:59;;;;;;;10.60;0.80;;;;;;;;;;5110562;27;20114;-66
2022/06/14 07:46:30;;;;;;;44.20;2.70;;;;;;;;;;5109777;28;20036;-68
2022/06/14 07:49:03;;;;;;;40.70;2.47;;;;;;;;;;5107077;28;20044;-67
2022/06/14 07:51:49;;;;;;;36.15;2.25;;;;;;;;;;5109143;28;20043;-66
2022/06/14 07:54:22;;;;;;;61.40;3.58;;;;;;;;;;5109902;28;20048;-67
2022/06/14 07:56:54;;;;;;;67.82;4.03;;;;;;;;;;5101178;28;20044;-67
2022/06/14 07:59:28;;;;;;;24.27;1.60;;;;;;;;;;5103533;28;20040;-66
2022/06/14 08:01:55;;;;;;;72.78;4.25;;;;;;;;;;5099019;28;20581;-67
2022/06/14 08:04:28;;;;;;;16.27;1.10;;;;;;;;;;5109980;28;20405;-66
2022/06/14 08:06:58;;;;;;;12.20;0.82;;;;;;;;;;5110313;28;20075;-67
2022/06/14 08:09:37;;;;;;;46.22;2.85;;;;;;;;;;5112284;28;20046;-67
2022/06/14 08:12:10;;;;;;;21.13;1.40;;;;;;;;;;5114684;28;20043;-67
2022/06/14 08:14:44;;;;;;;20.42;1.35;;;;;;;;;;5110766;28;20111;-67
2022/06/14 08:17:14;;;;;;;27.05;1.77;;;;;;;;;;5108586;28;20047;-67
2022/06/14 08:19:43;;;;;;;54.35;3.50;;;;;;;;;;5108330;28;20108;-70
2022/06/14 08:22:13;;;;;;;16.02;1.10;;;;;;;;;;5106333;28;20035;-67
2022/06/14 08:24:42;;;;;;;14.75;1.08;;;;;;;;;;5109660;28;20111;-68
2022/06/14 08:27:09;;;;;;;5.72;0.45;;;;;;;;;;5105922;28;20101;-68
2022/06/14 08:29:45;;;;;;;22.42;1.42;;;;;;;;;;5110150;28;20130;-68
2022/06/14 08:32:12;;;;;;;35.13;2.17;;;;;;;;;;5109638;28;20489;-67
2022/06/14 08:34:59;;;;;;;26.30;1.73;;;;;;;;;;5090549;28;20044;-67
2022/06/14 08:37:45;;;;;;;35.72;2.17;;;;;;;;;;5108709;28;20032;-67
2022/06/14 08:40:15;;;;;;;16.98;1.23;;;;;;;;;;5109528;28;20067;-67
2022/06/14 08:42:45;;;;;;;12.10;0.90;;;;;;;;;;5107151;28;20485;-72
2022/06/14 08:45:11;;;;;;;15.27;1.05;;;;;;;;;;5112833;28;20036;-68
2022/06/14 08:47:38;;;;;;;31.83;2.03;;;;;;;;;;5109897;28;20071;-72
2022/06/14 08:50:24;;;;;;;15.55;1.30;;;;;;;;;;5109360;28;20048;-66
2022/06/14 08:53:09;;;;;;;24.75;1.73;;;;;;;;;;5108874;27;20047;-59
2022/06/14 08:55:39;;;;;;;8.18;0.65;;;;;;;;;;5102196;28;20576;-60
2022/06/14 08:58:24;;;;;;;53.75;4.05;;;;;;;;;;5089868;28;20110;-63
2022/06/14 09:01:05;;;;;;;15.85;1.13;;;;;;;;;;5109711;28;20067;-59
2022/06/14 09:03:50;;;;;;;25.73;1.65;;;;;;;;;;5110500;27;20440;-60
2022/06/14 09:06:35;;;;;;;29.02;2.03;;;;;;;;;;5109845;28;20085;-63
2022/06/14 09:09:10;;;;;;;12.57;1.48;;;;;;;;;;5114061;28;20066;-58
2022/06/14 09:11:56;;;;;;;53.83;3.25;;;;;;;;;;5105878;28;20047;-61
2022/06/14 09:14:36;;;;;;;29.98;1.90;;;;;;;;;;5097639;28;20052;-62
2022/06/14 09:17:03;;;;;;;32.80;2.30;;;;;;;;;;5103204;28;20067;-62
2022/06/14 09:20:01;;;;;;;23.25;1.63;;;;;;;;;;5107756;28;20035;-62
2022/06/14 09:22:36;;;;;;;27.33;1.92;;;;;;;;;;5104525;28;20040;-65
2022/06/14 09:25:40;;;;;;;23.75;1.77;;;;;;;;;;5108320;28;20071;-62
2022/06/14 09:28:06;;;;;;;16.75;1.85;;;;;;;;;;5108692;27;20489;-62
2022/06/14 09:30:35;;;;;;;21.75;1.45;;;;;;;;;;5109800;28;23863;-62
2022/06/14 09:33:30;;;;;;;22.35;1.48;;;;;;;;;;5113195;28;20080;-62
2022/06/14 09:36:09;;;;;;;12.25;0.95;;;;;;;;;;5110913;28;20466;-62
2022/06/14 09:38:50;;;;;;;26.92;1.75;;;;;;;;;;5108334;28;20463;-62
2022/06/14 09:41:40;;;;;;;60.95;3.70;;;;;;;;;;5108032;28;20059;-62
2022/06/14 09:44:07;;;;;;;44.35;2.70;;;;;;;;;;5105255;28;20098;-63
2022/06/14 09:46:43;;;;;;;29.75;1.95;;;;;;;;;;5106021;28;20055;-68
2022/06/14 09:49:10;;;;;;;25.98;1.65;;;;;;;;;;5107882;28;20043;-67
2022/06/14 09:51:55;;;;;;;22.73;1.50;;;;;;;;;;5108815;28;20105;-64
2022/06/14 09:54:47;;;;;;;34.53;2.13;;;;;;;;;;5095302;28;20057;-65
2022/06/14 09:57:14;;;;;;;41.88;2.67;;;;;;;;;;5093973;28;20136;-65
2022/06/14 10:08:48;;;;;;;31.40;4.97;;;;;;;;;;5156501;22;20149;-65
2022/06/14 10:11:24;;;;;;;20.50;1.95;;;;;;;;;;5015034;28;20570;-68
2022/06/14 10:14:09;;;;;;;20.83;1.70;;;;;;;;;;5026375;28;20045;-69
2022/06/14 10:16:36;;;;;;;10.20;1.30;;;;;;;;;;5026934;28;20037;-62
2022/06/14 10:19:29;;;;;;;56.75;3.90;;;;;;;;;;5024177;28;20033;-61
2022/06/14 10:22:12;;;;;;;13.35;1.02;;;;;;;;;;5015984;28;20418;-64
2022/06/14 10:24:50;;;;;;;16.27;1.23;;;;;;;;;;5026760;28;20044;-61
2022/06/14 10:30:50;;;;;;;23.02;1.70;;;;;;;;;;4966269;28;20489;-65
2022/06/14 10:33:30;;;;;;;3.47;0.88;;;;;;;;;;4966372;28;20461;-68
2022/06/14 10:36:15;;;;;;;20.35;1.70;;;;;;;;;;4966454;28;20055;-73
2022/06/14 10:38:52;;;;;;;49.78;3.92;;;;;;;;;;4966672;28;20093;-66
2022/06/14 10:41:25;;;;;;;19.02;2.22;;;;;;;;;;4970009;28;20547;-69
2022/06/14 10:43:55;;;;;;;7.67;1.30;;;;;;;;;;4966262;28;20138;-68
2022/06/14 10:46:26;;;;;;;135.13;72.15;;;;;;;;;;4961753;28;20059;-66
2022/06/14 10:48:53;;;;;;;23.58;4.85;;;;;;;;;;4961381;28;20045;-66
2022/06/14 10:51:47;;;;;;;28.05;3.63;;;;;;;;;;4953956;28;20054;-67
2022/06/14 10:54:28;;;;;;;14.70;1.77;;;;;;;;;;4947368;28;20078;-66
2022/06/14 10:57:08;;;;;;;20.33;2.65;;;;;;;;;;4962921;28;20082;-66
2022/06/14 10:59:54;;;;;;;16.80;2.75;;;;;;;;;;4966870;28;20051;-66
2022/06/14 11:02:39;;;;;;;11.23;2.15;;;;;;;;;;4969480;28;20043;-65
2022/06/14 11:05:14;;;;;;;29.77;3.70;;;;;;;;;;4971037;28;20049;-66
2022/06/14 11:07:53;;;;;;;26.75;3.13;;;;;;;;;;5024526;28;20065;-63
2022/06/14 11:10:44;;;;;;;21.98;3.15;;;;;;;;;;5026794;28;20049;-64
2022/06/14 11:13:46;;;;;;;25.38;2.92;;;;;;;;;;5026299;28;20045;-64
2022/06/14 11:16:16;;;;;;;9.32;1.98;;;;;;;;;;4965938;28;20077;-62
2022/06/14 11:18:48;;;;;;;22.17;2.35;;;;;;;;;;4965077;28;20106;-63
2022/06/14 11:21:15;;;;;;;8.32;2.30;;;;;;;;;;4965160;28;20129;-64
2022/06/14 11:23:46;;;;;;;29.30;3.13;;;;;;;;;;4953213;28;20058;-62
2022/06/14 11:26:19;;;;;;;28.40;2.90;;;;;;;;;;4966647;28;20049;-63
2022/06/14 11:28:52;;;;;;;13.80;2.13;;;;;;;;;;4965346;28;20162;-63
2022/06/14 11:31:39;;;;;;;15.40;2.42;;;;;;;;;;4964743;28;20043;-63
2022/06/14 11:34:09;;;;;;;8.27;1.90;;;;;;;;;;4948624;28;20519;-63
2022/06/14 11:36:36;;;;;;;30.38;3.20;;;;;;;;;;4964606;28;20071;-63
2022/06/14 11:39:12;;;;;;;13.05;2.03;;;;;;;;;;4965369;28;20043;-63
2022/06/14 11:41:42;;;;;;;35.70;3.50;;;;;;;;;;4965680;28;20541;-63
2022/06/14 11:44:15;;;;;;;25.58;2.47;;;;;;;;;;4967599;28;20519;-65
2022/06/14 11:46:48;;;;;;;15.40;2.40;;;;;;;;;;4965265;28;20050;-65
2022/06/14 11:49:22;;;;;;;20.35;2.63;;;;;;;;;;4970249;28;20043;-59
2022/06/14 11:51:49;;;;;;;9.27;1.77;;;;;;;;;;5026035;28;20045;-61
2022/06/14 11:54:17;;;;;;;12.13;2.60;;;;;;;;;;5026149;28;20069;-63
2022/06/14 11:56:53;;;;;;;39.55;3.83;;;;;;;;;;5023990;28;20553;-65
2022/06/14 11:59:36;;;;;;;6.35;1.60;;;;;;;;;;5026281;28;20053;-62
2022/06/14 12:02:23;;;;;;;38.10;4.10;;;;;;;;;;5009722;28;20045;-64
2022/06/14 12:04:58;;;;;;;18.85;2.45;;;;;;;;;;5025476;28;20057;-63
2022/06/14 12:07:28;;;;;;;23.08;2.35;;;;;;;;;;5025922;28;20487;-64
2022/06/14 12:10:14;;;;;;;10.82;1.88;;;;;;;;;;5026219;28;20061;-65
2022/06/14 12:12:43;;;;;;;35.05;3.40;;;;;;;;;;5025661;28;20060;-66
2022/06/14 12:15:28;;;;;;;18.17;2.50;;;;;;;;;;5029982;28;20479;-66
2022/06/14 12:17:55;;;;;;;38.03;3.47;;;;;;;;;;5030266;28;20498;-64
2022/06/14 12:20:23;;;;;;;27.52;3.25;;;;;;;;;;5033733;28;20068;-65
2022/06/14 12:23:11;;;;;;;27.90;3.03;;;;;;;;;;5028782;28;20045;-66
2022/06/14 12:28:30;;;;;;;37.65;3.47;;;;;;;;;;4968929;28;20043;-66
2022/06/14 12:31:03;;;;;;;13.13;1.63;;;;;;;;;;4968569;28;20059;-66
2022/06/14 12:33:45;;;;;;;28.77;2.97;;;;;;;;;;4967711;28;20038;-65
2022/06/14 12:36:19;;;;;;;19.88;2.67;;;;;;;;;;4968256;28;20055;-67
2022/06/14 12:38:48;;;;;;;59.10;5.07;;;;;;;;;;4960747;28;20043;-61
2022/06/14 12:41:24;;;;;;;51.50;4.65;;;;;;;;;;4970547;28;20062;-60
2022/06/14 12:43:57;;;;;;;20.25;2.47;;;;;;;;;;4967696;28;20105;-61
2022/06/14 12:46:25;;;;;;;54.13;4.30;;;;;;;;;;4965920;28;20053;-61
2022/06/14 12:49:00;;;;;;;44.88;4.20;;;;;;;;;;4965801;28;20130;-61
2022/06/14 12:51:39;;;;;;;32.38;3.15;;;;;;;;;;4967932;28;20043;-61
2022/06/14 12:54:15;;;;;;;43.33;3.50;;;;;;;;;;4950063;28;20066;-61
2022/06/14 12:56:45;;;;;;;72.13;6.10;;;;;;;;;;4961511;28;20059;-61
2022/06/14 12:59:15;;;;;;;37.20;3.55;;;;;;;;;;4967547;28;20552;-61
2022/06/14 13:01:48;;;;;;;42.72;4.18;;;;;;;;;;4967111;28;20054;-61
2022/06/14 13:04:15;;;;;;;;;;;;;;;;;;5026858;28;20097;-61
2022/06/14 13:06:53;;;;;;;54.55;4.90;;;;;;;;;;5026341;28;19968;-61
2022/06/14 13:09:27;;;;;;;46.55;5.07;;;;;;;;;;5027133;28;20045;-60
2022/06/14 13:11:56;;;;;;;39.75;3.90;;;;;;;;;;5029032;28;20050;-61
2022/06/14 13:14:27;;;;;;;23.05;3.03;;;;;;;;;;5031905;28;20044;-61
2022/06/14 13:16:57;;;;;;;21.50;2.75;;;;;;;;;;5027344;28;20037;-61
2022/06/14 13:19:23;;;;;;;21.27;2.72;;;;;;;;;;5031026;28;20108;-61
2022/06/14 13:21:53;;;;;;;30.77;3.80;;;;;;;;;;5028298;28;20107;-60
2022/06/14 13:24:30;;;;;;;19.20;2.72;;;;;;;;;;5028556;28;20038;-61
2022/06/14 13:27:12;;;;;;;19.00;3.38;;;;;;;;;;5029758;28;20042;-61
2022/06/14 13:29:47;;;;;;;81.43;6.90;;;;;;;;;;5028784;28;20064;-61
2022/06/14 13:32:33;;;;;;;18.35;3.08;;;;;;;;;;5031086;28;20037;-61
2022/06/14 13:35:08;;;;;;;38.13;3.63;;;;;;;;;;5028362;28;20472;-61
2022/06/14 13:37:45;;;;;;;27.92;3.05;;;;;;;;;;5028189;28;20124;-61
2022/06/14 13:40:18;;;;;;;24.58;3.90;;;;;;;;;;5026561;28;20503;-63
2022/06/14 13:42:56;;;;;;;27.27;5.28;;;;;;;;;;5027068;28;20029;-62
2022/06/14 13:45:43;;;;;;;33.60;3.30;;;;;;;;;;5027679;28;20042;-61
2022/06/14 13:48:30;;;;;;;42.15;4.03;;;;;;;;;;5027583;28;20060;-60
2022/06/14 13:51:05;;;;;;;54.70;4.90;;;;;;;;;;5027338;28;20536;-60
2022/06/14 13:53:37;;;;;;;37.63;3.30;;;;;;;;;;5020484;28;20232;-60
2022/06/14 13:56:08;;;;;;;14.95;2.50;;;;;;;;;;5025974;28;20052;-60
2022/06/14 13:58:49;;;;;;;42.05;3.90;;;;;;;;;;5023922;28;20128;-60
2022/06/14 14:01:22;;;;;;;19.58;2.47;;;;;;;;;;5027410;28;20030;-60
2022/06/14 14:04:06;;;;;;;33.33;3.42;;;;;;;;;;5027389;28;20124;-59
2022/06/14 14:06:51;;;;;;;28.25;3.20;;;;;;;;;;5027330;28;20041;-61
2022/06/14 14:09:18;;;;;;;52.45;5.05;;;;;;;;;;5027251;28;20096;-61
2022/06/14 14:11:44;;;;;;;34.55;4.05;;;;;;;;;;5026547;28;20519;-59
2022/06/14 14:14:14;;;;;;;44.95;4.88;;;;;;;;;;5029502;28;20049;-60
2022/06/14 14:16:45;;;;;;;34.60;3.75;;;;;;;;;;5027486;28;20495;-59
2022/06/14 14:19:15;;;;;;;36.17;3.90;;;;;;;;;;5027269;28;20454;-59
2022/06/14 14:21:56;;;;;;;36.72;3.80;;;;;;;;;;5027196;28;20052;-59
2022/06/14 14:24:30;;;;;;;37.45;4.32;;;;;;;;;;5027546;28;20045;-59
2022/06/14 14:27:06;;;;;;;24.42;3.65;;;;;;;;;;5011150;28;20048;-58
2022/06/14 14:29:39;;;;;;;40.72;7.45;;;;;;;;;;5028151;28;20541;-58
2022/06/14 14:32:06;;;;;;;22.55;3.92;;;;;;;;;;5028785;28;20095;-58
2022/06/14 14:34:53;;;;;;;42.10;4.57;;;;;;;;;;5026992;28;20041;-58
2022/06/14 14:37:40;;;;;;;30.65;3.90;;;;;;;;;;5026309;28;20075;-58
2022/06/14 14:40:13;;;;;;;28.02;3.58;;;;;;;;;;5026952;28;20450;-58
2022/06/14 14:43:00;;;;;;;36.17;4.05;;;;;;;;;;5026280;28;20045;-58
2022/06/14 14:45:33;;;;;;;36.47;5.20;;;;;;;;;;5015167;28;20038;-58
2022/06/14 14:48:18;;;;;;;50.35;5.28;;;;;;;;;;5026954;28;20033;-58
2022/06/14 14:50:48;;;;;;;25.90;3.28;;;;;;;;;;5025446;28;20037;-58
2022/06/14 14:53:25;;;;;;;39.85;4.72;;;;;;;;;;5023793;28;20042;-59
2022/06/14 14:55:57;;;;;;;24.33;3.55;;;;;;;;;;5025088;28;20050;-60
2022/06/14 14:58:33;;;;;;;21.13;4.07;;;;;;;;;;5021981;28;20045;-59
2022/06/14 15:07:00;;;;;;;28.80;3.53;;;;;;;;;;5026419;28;20494;-59
2022/06/14 15:09:29;;;;;;;39.55;3.97;;;;;;;;;;5027229;28;20503;-60
2022/06/14 15:11:57;;;;;;;37.28;4.55;;;;;;;;;;5027778;28;20081;-59
2022/06/14 15:14:25;;;;;;;55.28;5.47;;;;;;;;;;5030819;28;20168;-61
2022/06/14 15:19:54;;;;;;;21.45;3.83;;;;;;;;;;5026392;28;20136;-65
2022/06/14 15:22:31;;;;;;;31.90;4.53;;;;;;;;;;5026803;28;20143;-63
2022/06/14 15:25:01;;;;;;;44.90;4.78;;;;;;;;;;5026878;28;20061;-63
2022/06/14 15:27:40;;;;;;;27.85;3.40;;;;;;;;;;5026642;28;20179;-61
2022/06/14 15:30:09;;;;;;;31.42;3.10;;;;;;;;;;5013507;28;20108;-61
2022/06/14 15:32:36;;;;;;;22.25;2.58;;;;;;;;;;5015314;28;20050;-62
2022/06/14 15:35:21;;;;;;;26.15;2.63;;;;;;;;;;5027123;28;20037;-62
2022/06/14 15:38:19;;;;;;;28.80;3.05;;;;;;;;;;5025952;28;20045;-62
2022/06/14 15:40:46;;;;;;;35.03;3.22;;;;;;;;;;4965058;28;20043;-62